CW9784 Weather Reports


time (UTC)temp
F
wind
direction
speed
knots
gust
knots
rain 1hr
in
rain 24hr
in
rain mn
in
humidity
%
barometer
mb
20220927011019 54 0.0 0.9 0.00 0.00 0.00 62 1015.3
20220927010025 55 0.0 0.0 0.00 0.00 0.00 60 1015.3
20220927005040 56 0.0 0.0 0.00 0.00 0.00 59 1015.3
20220927004020 56 0.0 1.7 0.00 0.00 0.00 58 1015.3
20220927003019 57 0.0 0.9 0.00 0.00 0.00 56 1015.2
20220927002019 58 0.0 1.7 0.00 0.00 0.00 54 1015.1
20220927001833 59 0.0 2.6 0.00 0.00 0.00 53 1015.2
20220926211018 63 338 4.3 11.3 0.00 0.00 0.00 40 1015.2
20220926210020 63 338 5.2 13.0 0.00 0.00 0.00 39 1015.2
20220926205120 63 315 4.3 10.4 0.00 0.00 0.00 40 1015.2
20220926204020 63 338 5.2 10.4 0.00 0.00 0.00 40 1015.2
20220926203059 62 293 5.2 12.2 0.00 0.00 0.00 41 1015.2
20220926202059 62 338 4.3 13.9 0.00 0.00 0.00 41 1015.3
20220926201757 62 338 5.2 12.2 0.00 0.00 0.00 44 1015.2
20220926190059 60 338 6.1 15.6 0.00 0.00 0.00 45 1015.8
20220926185022 60 293 5.2 13.0 0.00 0.00 0.00 45 1015.7
20220926184022 60 293 5.2 12.2 0.00 0.00 0.00 46 1015.8
20220926183021 60 293 3.5 9.6 0.00 0.00 0.00 50 1015.8
20220926182039 60 315 5.2 12.2 0.00 0.00 0.00 51 1016.0
20220926181759 60 338 5.2 14.8 0.00 0.00 0.00 53 1016.0
20220926171020 58 315 2.6 8.7 0.00 0.00 0.00 58 1016.3
20220926170021 58 293 6.1 13.0 0.00 0.00 0.00 57 1016.3
20220926165020 57 338 3.5 10.4 0.00 0.00 0.00 59 1016.3
20220926164020 57 270 3.5 9.6 0.00 0.00 0.00 60 1016.3
20220926163140 57 293 5.2 10.4 0.00 0.00 0.00 60 1016.4
20220926162018 56 338 5.2 12.2 0.00 0.00 0.00 59 1016.3
20220926161919 56 293 5.2 11.3 0.00 0.00 0.00 61 1016.4
20220926121019 47 338 0.9 4.3 0.00 0.00 0.00 77 1015.0
20220926120019 47 315 0.9 3.5 0.00 0.00 0.00 77 1014.8
20220926115020 47 270 0.9 7.0 0.00 0.00 0.00 76 1014.7
20220926114120 47 293 1.7 7.0 0.00 0.00 0.00 76 1014.6
20220926113019 47 315 1.7 7.0 0.00 0.00 0.00 76 1014.7
20220926112634 47 293 1.7 6.1 0.00 0.00 0.00 76 1014.6
20220926111019 47 338 1.7 7.8 0.00 0.00 0.00 76 1014.5
20220926110019 47 315 1.7 5.2 0.00 0.00 0.00 76 1014.5
20220926105040 47 293 1.7 7.0 0.00 0.00 0.00 76 1014.5
20220926104020 47 293 0.9 5.2 0.00 0.00 0.00 76 1014.5
20220926103020 47 338 0.9 5.2 0.00 0.00 0.00 76 1014.5
20220926102018 47 293 1.7 7.8 0.00 0.00 0.00 75 1014.2
20220926101810 47 293 1.7 6.1 0.00 0.00 0.00 75 1014.3
20220926091019 48 315 1.7 7.0 0.00 0.00 0.00 74 1013.9
20220926090022 48 293 1.7 8.7 0.00 0.00 0.00 74 1013.8
20220926085021 48 293 1.7 6.1 0.00 0.00 0.00 74 1013.8
20220926084100 48 293 1.7 5.2 0.00 0.00 0.00 74 1013.8
20220926083019 48 293 0.9 4.3 0.00 0.00 0.00 74 1013.9
20220926082018 48 293 0.9 5.2 0.00 0.00 0.00 74 1013.9
20220926081908 48 293 0.9 5.2 0.00 0.00 0.00 73 1013.8
20220926061020 52 315 0.9 2.6 0.00 0.00 0.00 66 1013.7
20220926060020 52 338 0.9 3.5 0.00 0.00 0.00 66 1013.6
20220926055021 52 315 0.9 3.5 0.00 0.00 0.00 65 1013.6
20220926053020 53 338 0.9 5.2 0.00 0.00 0.00 63 1013.7
20220926052019 53 0 1.7 8.7 0.00 0.00 0.00 64 1013.7
20220926051752 53 315 0.9 5.2 0.00 0.00 0.00 64 1013.7
20220926041022 54 315 0.9 3.5 0.00 0.00 0.00 65 1013.6
20220926040102 54 0.0 1.7 0.00 0.00 0.00 65 1013.6
20220926035102 55 293 0.9 3.5 0.00 0.00 0.00 63 1013.6
20220926034101 56 338 0.9 3.5 0.00 0.00 0.00 61 1013.6
20220926033022 56 315 1.7 7.0 0.00 0.00 0.00 60 1013.4
20220926032020 57 315 0.9 4.3 0.00 0.00 0.00 59 1013.4
20220926031950 57 315 1.7 8.7 0.00 0.00 0.00 59 1013.4